Hope, Michigan
Current Conditions -  °F | °C
As of 10:52 PM on Saturday 25 Oct 2014 (Local Time) from KIKW Reporting Station
Clear Clear  
Wind Chill: 51°   Ceiling: Unl
Heat Index: 51°   Visibility: 10mi
Dew Point: 34°   Wind: 8mph
Humidity: 52%   Direction: 270°W
Pressure: 29.79"   Gusts: NA
Location:  43.76°N, 84.34°W
Report Text: KIKW 260252Z AUTO 27007KT 10SM CLR 11/01 A2979 RMK AO2 T01050010
Loading
Personal Weather Stations






























Interactive Weather Map New forecast layout! Learn more

10-Day Weather Forecast

Advertisements
Track Severe Weather on mobile